sensor_id;sensor_type;location;lat;lon;timestamp;P1;durP1;ratioP1;P2;durP2;ratioP2
34711;SDS011;20941;42.408;25.634;2023-05-23T00:00:26;8.10;;;5.78;;
34711;SDS011;20941;42.408;25.634;2023-05-23T00:02:52;9.45;;;5.80;;
34711;SDS011;20941;42.408;25.634;2023-05-23T00:05:18;10.82;;;6.85;;
34711;SDS011;20941;42.408;25.634;2023-05-23T00:07:43;11.27;;;7.75;;
34711;SDS011;20941;42.408;25.634;2023-05-23T00:10:09;16.98;;;11.82;;
34711;SDS011;20941;42.408;25.634;2023-05-23T00:12:35;48.10;;;30.83;;
34711;SDS011;20941;42.408;25.634;2023-05-23T00:15:02;59.45;;;38.05;;
34711;SDS011;20941;42.408;25.634;2023-05-23T00:17:27;38.38;;;21.10;;
34711;SDS011;20941;42.408;25.634;2023-05-23T00:19:52;32.30;;;19.13;;
34711;SDS011;20941;42.408;25.634;2023-05-23T00:22:20;48.47;;;36.33;;
34711;SDS011;20941;42.408;25.634;2023-05-23T00:24:45;55.08;;;35.42;;
34711;SDS011;20941;42.408;25.634;2023-05-23T00:27:10;24.20;;;18.98;;
34711;SDS011;20941;42.408;25.634;2023-05-23T00:29:36;51.95;;;36.92;;
34711;SDS011;20941;42.408;25.634;2023-05-23T00:32:01;11.75;;;8.23;;
34711;SDS011;20941;42.408;25.634;2023-05-23T00:34:26;5.00;;;4.50;;
34711;SDS011;20941;42.408;25.634;2023-05-23T00:36:52;10.05;;;7.20;;
34711;SDS011;20941;42.408;25.634;2023-05-23T00:39:18;18.48;;;8.82;;
34711;SDS011;20941;42.408;25.634;2023-05-23T00:41:47;20.45;;;8.20;;
34711;SDS011;20941;42.408;25.634;2023-05-23T00:44:13;23.10;;;8.75;;
34711;SDS011;20941;42.408;25.634;2023-05-23T00:46:39;10.30;;;6.18;;
34711;SDS011;20941;42.408;25.634;2023-05-23T00:49:04;5.90;;;4.63;;
34711;SDS011;20941;42.408;25.634;2023-05-23T00:51:30;5.97;;;4.72;;
34711;SDS011;20941;42.408;25.634;2023-05-23T00:53:56;10.38;;;4.63;;
34711;SDS011;20941;42.408;25.634;2023-05-23T00:56:23;9.63;;;5.55;;
34711;SDS011;20941;42.408;25.634;2023-05-23T00:58:50;7.20;;;4.90;;
34711;SDS011;20941;42.408;25.634;2023-05-23T01:01:16;13.48;;;5.25;;
34711;SDS011;20941;42.408;25.634;2023-05-23T01:03:43;7.78;;;5.20;;
34711;SDS011;20941;42.408;25.634;2023-05-23T01:06:10;11.45;;;8.45;;
34711;SDS011;20941;42.408;25.634;2023-05-23T01:08:35;11.02;;;8.77;;
34711;SDS011;20941;42.408;25.634;2023-05-23T01:11:02;10.50;;;8.98;;
34711;SDS011;20941;42.408;25.634;2023-05-23T01:21:06;32.30;;;21.20;;
34711;SDS011;20941;42.408;25.634;2023-05-23T01:31:20;26.85;;;15.00;;
34711;SDS011;20941;42.408;25.634;2023-05-23T01:33:46;16.67;;;12.43;;
34711;SDS011;20941;42.408;25.634;2023-05-23T01:36:14;17.63;;;13.13;;
34711;SDS011;20941;42.408;25.634;2023-05-23T01:38:39;17.60;;;10.65;;
34711;SDS011;20941;42.408;25.634;2023-05-23T01:41:04;11.15;;;8.57;;
34711;SDS011;20941;42.408;25.634;2023-05-23T01:43:30;12.48;;;8.15;;
34711;SDS011;20941;42.408;25.634;2023-05-23T01:45:55;10.20;;;8.00;;
34711;SDS011;20941;42.408;25.634;2023-05-23T01:48:21;12.30;;;8.13;;
34711;SDS011;20941;42.408;25.634;2023-05-23T01:50:48;11.50;;;9.00;;
34711;SDS011;20941;42.408;25.634;2023-05-23T01:53:14;14.57;;;7.97;;
34711;SDS011;20941;42.408;25.634;2023-05-23T01:55:40;15.48;;;8.38;;
34711;SDS011;20941;42.408;25.634;2023-05-23T01:58:06;13.43;;;7.90;;
34711;SDS011;20941;42.408;25.634;2023-05-23T02:00:31;12.10;;;7.90;;
34711;SDS011;20941;42.408;25.634;2023-05-23T02:02:57;18.40;;;8.07;;
34711;SDS011;20941;42.408;25.634;2023-05-23T02:05:22;10.98;;;8.18;;
34711;SDS011;20941;42.408;25.634;2023-05-23T02:07:47;12.88;;;8.55;;
34711;SDS011;20941;42.408;25.634;2023-05-23T02:10:13;15.15;;;8.88;;
34711;SDS011;20941;42.408;25.634;2023-05-23T02:12:38;13.13;;;8.80;;
34711;SDS011;20941;42.408;25.634;2023-05-23T02:15:04;15.00;;;9.65;;
34711;SDS011;20941;42.408;25.634;2023-05-23T02:17:29;14.50;;;9.32;;
34711;SDS011;20941;42.408;25.634;2023-05-23T02:19:54;13.55;;;9.60;;
34711;SDS011;20941;42.408;25.634;2023-05-23T02:22:23;17.52;;;10.10;;
34711;SDS011;20941;42.408;25.634;2023-05-23T02:24:49;18.30;;;10.00;;
34711;SDS011;20941;42.408;25.634;2023-05-23T02:27:15;18.17;;;10.25;;
34711;SDS011;20941;42.408;25.634;2023-05-23T02:29:40;22.42;;;11.23;;
34711;SDS011;20941;42.408;25.634;2023-05-23T02:32:05;19.63;;;10.15;;
34711;SDS011;20941;42.408;25.634;2023-05-23T02:34:31;18.48;;;10.43;;
34711;SDS011;20941;42.408;25.634;2023-05-23T02:36:56;25.48;;;11.43;;
34711;SDS011;20941;42.408;25.634;2023-05-23T02:39:22;11.60;;;9.93;;
34711;SDS011;20941;42.408;25.634;2023-05-23T02:41:47;17.25;;;10.75;;
34711;SDS011;20941;42.408;25.634;2023-05-23T02:44:12;24.02;;;11.25;;
34711;SDS011;20941;42.408;25.634;2023-05-23T02:46:38;17.13;;;10.52;;
34711;SDS011;20941;42.408;25.634;2023-05-23T02:49:03;17.95;;;10.80;;
34711;SDS011;20941;42.408;25.634;2023-05-23T02:51:28;16.88;;;11.48;;
34711;SDS011;20941;42.408;25.634;2023-05-23T02:53:53;23.83;;;12.55;;
34711;SDS011;20941;42.408;25.634;2023-05-23T02:56:19;23.05;;;13.35;;
34711;SDS011;20941;42.408;25.634;2023-05-23T02:58:46;27.33;;;15.65;;
34711;SDS011;20941;42.408;25.634;2023-05-23T03:01:11;25.08;;;12.65;;
34711;SDS011;20941;42.408;25.634;2023-05-23T03:03:36;44.47;;;27.90;;
34711;SDS011;20941;42.408;25.634;2023-05-23T03:06:02;31.02;;;16.90;;
34711;SDS011;20941;42.408;25.634;2023-05-23T03:08:29;24.52;;;15.63;;
34711;SDS011;20941;42.408;25.634;2023-05-23T03:10:54;25.33;;;16.23;;
34711;SDS011;20941;42.408;25.634;2023-05-23T03:13:19;25.52;;;14.32;;
34711;SDS011;20941;42.408;25.634;2023-05-23T03:15:45;21.55;;;16.80;;
34711;SDS011;20941;42.408;25.634;2023-05-23T03:18:10;23.52;;;16.73;;
34711;SDS011;20941;42.408;25.634;2023-05-23T03:20:36;28.15;;;16.13;;
34711;SDS011;20941;42.408;25.634;2023-05-23T03:23:02;19.45;;;13.15;;
34711;SDS011;20941;42.408;25.634;2023-05-23T03:25:27;19.73;;;13.45;;
34711;SDS011;20941;42.408;25.634;2023-05-23T03:27:53;21.48;;;12.77;;
34711;SDS011;20941;42.408;25.634;2023-05-23T03:30:18;27.48;;;12.77;;
34711;SDS011;20941;42.408;25.634;2023-05-23T03:32:44;24.60;;;12.00;;
34711;SDS011;20941;42.408;25.634;2023-05-23T03:35:10;19.95;;;11.48;;
34711;SDS011;20941;42.408;25.634;2023-05-23T03:37:36;20.17;;;10.70;;
34711;SDS011;20941;42.408;25.634;2023-05-23T03:40:01;15.43;;;9.30;;
34711;SDS011;20941;42.408;25.634;2023-05-23T03:42:26;15.77;;;8.73;;
34711;SDS011;20941;42.408;25.634;2023-05-23T03:44:52;15.25;;;7.35;;
34711;SDS011;20941;42.408;25.634;2023-05-23T03:47:17;13.07;;;7.07;;
34711;SDS011;20941;42.408;25.634;2023-05-23T03:49:42;10.05;;;6.40;;
34711;SDS011;20941;42.408;25.634;2023-05-23T03:52:09;11.80;;;6.88;;
34711;SDS011;20941;42.408;25.634;2023-05-23T03:54:35;11.63;;;5.95;;
34711;SDS011;20941;42.408;25.634;2023-05-23T03:57:00;10.48;;;6.28;;
34711;SDS011;20941;42.408;25.634;2023-05-23T03:59:27;10.80;;;6.10;;
34711;SDS011;20941;42.408;25.634;2023-05-23T04:01:52;14.30;;;6.32;;
34711;SDS011;20941;42.408;25.634;2023-05-23T04:04:17;10.60;;;5.43;;
34711;SDS011;20941;42.408;25.634;2023-05-23T04:06:45;19.55;;;5.60;;
34711;SDS011;20941;42.408;25.634;2023-05-23T04:09:10;14.57;;;5.55;;
34711;SDS011;20941;42.408;25.634;2023-05-23T04:11:36;9.55;;;4.95;;
34711;SDS011;20941;42.408;25.634;2023-05-23T04:14:01;11.48;;;5.10;;
34711;SDS011;20941;42.408;25.634;2023-05-23T04:16:27;11.52;;;5.20;;
34711;SDS011;20941;42.408;25.634;2023-05-23T04:18:57;18.45;;;6.68;;
34711;SDS011;20941;42.408;25.634;2023-05-23T04:21:22;19.15;;;6.88;;
34711;SDS011;20941;42.408;25.634;2023-05-23T04:23:47;17.23;;;6.03;;
34711;SDS011;20941;42.408;25.634;2023-05-23T04:26:13;29.55;;;6.95;;
34711;SDS011;20941;42.408;25.634;2023-05-23T04:28:38;26.88;;;6.93;;
34711;SDS011;20941;42.408;25.634;2023-05-23T04:31:04;20.20;;;7.47;;
34711;SDS011;20941;42.408;25.634;2023-05-23T04:33:29;33.42;;;8.02;;
34711;SDS011;20941;42.408;25.634;2023-05-23T04:35:55;31.70;;;8.95;;
34711;SDS011;20941;42.408;25.634;2023-05-23T04:38:21;22.67;;;7.43;;
34711;SDS011;20941;42.408;25.634;2023-05-23T04:40:49;46.03;;;11.45;;
34711;SDS011;20941;42.408;25.634;2023-05-23T04:43:15;46.97;;;13.00;;
34711;SDS011;20941;42.408;25.634;2023-05-23T04:45:40;40.53;;;10.98;;
34711;SDS011;20941;42.408;25.634;2023-05-23T04:48:06;23.95;;;8.25;;
34711;SDS011;20941;42.408;25.634;2023-05-23T04:50:32;35.08;;;9.32;;
34711;SDS011;20941;42.408;25.634;2023-05-23T04:52:58;29.85;;;9.07;;
34711;SDS011;20941;42.408;25.634;2023-05-23T04:55:42;38.20;;;10.68;;
34711;SDS011;20941;42.408;25.634;2023-05-23T04:58:08;40.58;;;14.07;;
34711;SDS011;20941;42.408;25.634;2023-05-23T05:00:33;37.33;;;15.73;;
34711;SDS011;20941;42.408;25.634;2023-05-23T05:03:00;31.25;;;15.10;;
34711;SDS011;20941;42.408;25.634;2023-05-23T05:05:25;32.10;;;14.45;;
34711;SDS011;20941;42.408;25.634;2023-05-23T05:07:50;23.80;;;14.85;;
34711;SDS011;20941;42.408;25.634;2023-05-23T05:10:16;25.60;;;15.40;;
34711;SDS011;20941;42.408;25.634;2023-05-23T05:12:45;32.53;;;16.73;;
34711;SDS011;20941;42.408;25.634;2023-05-23T05:15:11;28.48;;;16.35;;
34711;SDS011;20941;42.408;25.634;2023-05-23T05:17:37;30.27;;;14.73;;
34711;SDS011;20941;42.408;25.634;2023-05-23T05:20:03;27.75;;;13.15;;
34711;SDS011;20941;42.408;25.634;2023-05-23T05:22:32;47.78;;;20.55;;
34711;SDS011;20941;42.408;25.634;2023-05-23T05:24:59;48.75;;;19.00;;
34711;SDS011;20941;42.408;25.634;2023-05-23T05:27:25;42.30;;;17.73;;
34711;SDS011;20941;42.408;25.634;2023-05-23T05:29:50;32.70;;;19.70;;
34711;SDS011;20941;42.408;25.634;2023-05-23T05:32:17;18.95;;;10.50;;
34711;SDS011;20941;42.408;25.634;2023-05-23T05:34:42;31.88;;;13.43;;
34711;SDS011;20941;42.408;25.634;2023-05-23T05:37:08;28.60;;;10.50;;
34711;SDS011;20941;42.408;25.634;2023-05-23T05:39:33;24.08;;;9.65;;
34711;SDS011;20941;42.408;25.634;2023-05-23T05:41:58;17.48;;;8.38;;
34711;SDS011;20941;42.408;25.634;2023-05-23T05:44:25;22.58;;;7.80;;
34711;SDS011;20941;42.408;25.634;2023-05-23T05:46:51;29.83;;;8.57;;
34711;SDS011;20941;42.408;25.634;2023-05-23T05:49:16;13.57;;;6.10;;
34711;SDS011;20941;42.408;25.634;2023-05-23T05:51:41;9.45;;;7.38;;
34711;SDS011;20941;42.408;25.634;2023-05-23T05:54:07;14.35;;;6.68;;
34711;SDS011;20941;42.408;25.634;2023-05-23T05:56:32;15.00;;;7.60;;
34711;SDS011;20941;42.408;25.634;2023-05-23T05:58:58;25.15;;;14.52;;
34711;SDS011;20941;42.408;25.634;2023-05-23T06:01:23;39.63;;;21.95;;
34711;SDS011;20941;42.408;25.634;2023-05-23T06:03:49;58.60;;;13.10;;
34711;SDS011;20941;42.408;25.634;2023-05-23T06:06:14;32.50;;;8.10;;
34711;SDS011;20941;42.408;25.634;2023-05-23T06:08:40;12.70;;;5.90;;
34711;SDS011;20941;42.408;25.634;2023-05-23T06:11:05;11.40;;;5.50;;
34711;SDS011;20941;42.408;25.634;2023-05-23T06:13:31;53.10;;;10.00;;
34711;SDS011;20941;42.408;25.634;2023-05-23T06:15:56;44.65;;;9.75;;
34711;SDS011;20941;42.408;25.634;2023-05-23T06:18:22;13.30;;;6.07;;
34711;SDS011;20941;42.408;25.634;2023-05-23T06:20:47;18.00;;;6.00;;
34711;SDS011;20941;42.408;25.634;2023-05-23T06:23:13;31.45;;;8.40;;
34711;SDS011;20941;42.408;25.634;2023-05-23T06:25:38;18.33;;;5.60;;
34711;SDS011;20941;42.408;25.634;2023-05-23T06:28:04;27.38;;;6.97;;
34711;SDS011;20941;42.408;25.634;2023-05-23T06:30:29;17.38;;;5.78;;
34711;SDS011;20941;42.408;25.634;2023-05-23T06:32:55;39.13;;;8.07;;
34711;SDS011;20941;42.408;25.634;2023-05-23T06:35:20;37.95;;;8.13;;
34711;SDS011;20941;42.408;25.634;2023-05-23T06:37:45;32.50;;;7.95;;
34711;SDS011;20941;42.408;25.634;2023-05-23T06:40:11;43.35;;;9.15;;
34711;SDS011;20941;42.408;25.634;2023-05-23T06:42:38;21.73;;;7.22;;
34711;SDS011;20941;42.408;25.634;2023-05-23T06:45:03;18.27;;;8.35;;
34711;SDS011;20941;42.408;25.634;2023-05-23T06:47:29;22.90;;;7.15;;
34711;SDS011;20941;42.408;25.634;2023-05-23T06:49:54;17.10;;;6.00;;
34711;SDS011;20941;42.408;25.634;2023-05-23T06:52:19;22.67;;;8.00;;
34711;SDS011;20941;42.408;25.634;2023-05-23T06:54:45;34.85;;;8.82;;
34711;SDS011;20941;42.408;25.634;2023-05-23T06:57:10;23.10;;;7.85;;
34711;SDS011;20941;42.408;25.634;2023-05-23T06:59:35;15.23;;;6.60;;
34711;SDS011;20941;42.408;25.634;2023-05-23T07:02:01;38.30;;;10.25;;
34711;SDS011;20941;42.408;25.634;2023-05-23T07:04:26;39.22;;;12.32;;
34711;SDS011;20941;42.408;25.634;2023-05-23T07:06:52;21.33;;;7.68;;
34711;SDS011;20941;42.408;25.634;2023-05-23T07:09:17;21.42;;;7.57;;
34711;SDS011;20941;42.408;25.634;2023-05-23T07:11:42;25.05;;;8.70;;
34711;SDS011;20941;42.408;25.634;2023-05-23T07:14:08;19.20;;;6.60;;
34711;SDS011;20941;42.408;25.634;2023-05-23T07:16:33;16.10;;;6.53;;
34711;SDS011;20941;42.408;25.634;2023-05-23T07:19:00;6.13;;;3.28;;
34711;SDS011;20941;42.408;25.634;2023-05-23T07:21:25;45.00;;;8.93;;
34711;SDS011;20941;42.408;25.634;2023-05-23T07:23:50;7.82;;;4.45;;
34711;SDS011;20941;42.408;25.634;2023-05-23T07:26:16;22.55;;;8.18;;
34711;SDS011;20941;42.408;25.634;2023-05-23T07:28:41;25.77;;;9.35;;
34711;SDS011;20941;42.408;25.634;2023-05-23T07:31:06;12.32;;;6.78;;
34711;SDS011;20941;42.408;25.634;2023-05-23T07:33:33;14.07;;;5.25;;
34711;SDS011;20941;42.408;25.634;2023-05-23T07:35:58;7.43;;;5.05;;
34711;SDS011;20941;42.408;25.634;2023-05-23T07:38:25;12.68;;;5.57;;
34711;SDS011;20941;42.408;25.634;2023-05-23T07:40:50;13.63;;;6.90;;
34711;SDS011;20941;42.408;25.634;2023-05-23T07:43:16;6.90;;;4.10;;
34711;SDS011;20941;42.408;25.634;2023-05-23T07:45:41;13.88;;;6.30;;
34711;SDS011;20941;42.408;25.634;2023-05-23T07:48:07;13.15;;;7.00;;
34711;SDS011;20941;42.408;25.634;2023-05-23T07:50:32;8.02;;;4.03;;
34711;SDS011;20941;42.408;25.634;2023-05-23T07:52:58;9.15;;;3.15;;
34711;SDS011;20941;42.408;25.634;2023-05-23T07:55:23;14.68;;;5.75;;
34711;SDS011;20941;42.408;25.634;2023-05-23T07:57:48;13.23;;;4.57;;
34711;SDS011;20941;42.408;25.634;2023-05-23T08:00:14;6.05;;;3.45;;
34711;SDS011;20941;42.408;25.634;2023-05-23T08:02:39;13.82;;;4.70;;
34711;SDS011;20941;42.408;25.634;2023-05-23T08:05:05;27.42;;;6.93;;
34711;SDS011;20941;42.408;25.634;2023-05-23T08:07:31;5.63;;;3.40;;
34711;SDS011;20941;42.408;25.634;2023-05-23T08:09:56;7.70;;;4.57;;
34711;SDS011;20941;42.408;25.634;2023-05-23T08:12:21;5.82;;;2.80;;
34711;SDS011;20941;42.408;25.634;2023-05-23T08:14:47;6.90;;;3.63;;
34711;SDS011;20941;42.408;25.634;2023-05-23T08:17:15;5.50;;;4.00;;
34711;SDS011;20941;42.408;25.634;2023-05-23T08:19:40;6.65;;;5.40;;
34711;SDS011;20941;42.408;25.634;2023-05-23T08:22:06;6.85;;;3.97;;
34711;SDS011;20941;42.408;25.634;2023-05-23T08:24:31;7.65;;;3.90;;
34711;SDS011;20941;42.408;25.634;2023-05-23T08:26:58;3.65;;;2.30;;
34711;SDS011;20941;42.408;25.634;2023-05-23T08:29:23;12.20;;;4.80;;
34711;SDS011;20941;42.408;25.634;2023-05-23T08:31:49;6.40;;;4.88;;
34711;SDS011;20941;42.408;25.634;2023-05-23T08:34:14;5.53;;;3.75;;
34711;SDS011;20941;42.408;25.634;2023-05-23T08:36:39;13.70;;;4.80;;
34711;SDS011;20941;42.408;25.634;2023-05-23T08:39:07;6.47;;;3.97;;
34711;SDS011;20941;42.408;25.634;2023-05-23T08:41:32;5.88;;;3.45;;
34711;SDS011;20941;42.408;25.634;2023-05-23T08:43:58;7.07;;;3.20;;
34711;SDS011;20941;42.408;25.634;2023-05-23T08:46:24;4.32;;;2.72;;
34711;SDS011;20941;42.408;25.634;2023-05-23T08:48:50;8.30;;;3.35;;
34711;SDS011;20941;42.408;25.634;2023-05-23T08:51:16;4.57;;;2.75;;
34711;SDS011;20941;42.408;25.634;2023-05-23T08:53:41;5.90;;;3.50;;
34711;SDS011;20941;42.408;25.634;2023-05-23T08:56:17;8.80;;;3.83;;
34711;SDS011;20941;42.408;25.634;2023-05-23T08:58:43;4.63;;;3.25;;
34711;SDS011;20941;42.408;25.634;2023-05-23T09:01:12;6.35;;;3.50;;
34711;SDS011;20941;42.408;25.634;2023-05-23T09:03:38;10.25;;;3.60;;
34711;SDS011;20941;42.408;25.634;2023-05-23T09:06:07;9.85;;;3.20;;
34711;SDS011;20941;42.408;25.634;2023-05-23T09:08:33;7.47;;;3.88;;
34711;SDS011;20941;42.408;25.634;2023-05-23T09:10:58;5.82;;;3.70;;
34711;SDS011;20941;42.408;25.634;2023-05-23T09:13:27;3.03;;;2.70;;
34711;SDS011;20941;42.408;25.634;2023-05-23T09:18:31;4.32;;;2.90;;
34711;SDS011;20941;42.408;25.634;2023-05-23T09:20:57;7.68;;;3.33;;
34711;SDS011;20941;42.408;25.634;2023-05-23T09:23:22;10.68;;;3.92;;
34711;SDS011;20941;42.408;25.634;2023-05-23T09:25:48;5.70;;;3.38;;
34711;SDS011;20941;42.408;25.634;2023-05-23T09:28:13;3.22;;;2.72;;
34711;SDS011;20941;42.408;25.634;2023-05-23T09:30:39;4.43;;;3.05;;
34711;SDS011;20941;42.408;25.634;2023-05-23T09:33:04;6.20;;;3.15;;
34711;SDS011;20941;42.408;25.634;2023-05-23T09:35:30;5.30;;;3.35;;
34711;SDS011;20941;42.408;25.634;2023-05-23T09:37:56;6.13;;;3.50;;
34711;SDS011;20941;42.408;25.634;2023-05-23T09:40:23;5.05;;;3.22;;
34711;SDS011;20941;42.408;25.634;2023-05-23T09:42:53;6.97;;;3.42;;
34711;SDS011;20941;42.408;25.634;2023-05-23T09:45:18;5.22;;;3.30;;
34711;SDS011;20941;42.408;25.634;2023-05-23T09:47:50;9.30;;;3.53;;
34711;SDS011;20941;42.408;25.634;2023-05-23T09:50:16;3.72;;;3.35;;
34711;SDS011;20941;42.408;25.634;2023-05-23T09:52:41;9.40;;;3.70;;
34711;SDS011;20941;42.408;25.634;2023-05-23T09:55:07;7.13;;;3.70;;
34711;SDS011;20941;42.408;25.634;2023-05-23T09:57:36;6.38;;;4.00;;
34711;SDS011;20941;42.408;25.634;2023-05-23T10:00:03;4.88;;;3.33;;
34711;SDS011;20941;42.408;25.634;2023-05-23T10:05:43;11.13;;;3.40;;
34711;SDS011;20941;42.408;25.634;2023-05-23T10:08:09;9.02;;;3.17;;
34711;SDS011;20941;42.408;25.634;2023-05-23T10:13:18;10.35;;;3.47;;
34711;SDS011;20941;42.408;25.634;2023-05-23T10:15:44;7.43;;;3.55;;
34711;SDS011;20941;42.408;25.634;2023-05-23T10:18:14;5.35;;;3.22;;
34711;SDS011;20941;42.408;25.634;2023-05-23T10:20:42;6.03;;;3.72;;
34711;SDS011;20941;42.408;25.634;2023-05-23T10:23:10;11.95;;;3.92;;
34711;SDS011;20941;42.408;25.634;2023-05-23T10:25:36;10.65;;;3.92;;
34711;SDS011;20941;42.408;25.634;2023-05-23T10:28:01;6.88;;;3.97;;
34711;SDS011;20941;42.408;25.634;2023-05-23T10:30:27;5.88;;;3.60;;
34711;SDS011;20941;42.408;25.634;2023-05-23T10:32:56;5.95;;;3.70;;
34711;SDS011;20941;42.408;25.634;2023-05-23T10:38:07;6.25;;;3.38;;
34711;SDS011;20941;42.408;25.634;2023-05-23T10:40:42;6.80;;;3.65;;
34711;SDS011;20941;42.408;25.634;2023-05-23T10:43:24;5.53;;;3.17;;
34711;SDS011;20941;42.408;25.634;2023-05-23T10:45:50;5.65;;;3.55;;
34711;SDS011;20941;42.408;25.634;2023-05-23T10:48:33;3.65;;;3.08;;
34711;SDS011;20941;42.408;25.634;2023-05-23T10:53:28;13.55;;;4.25;;
34711;SDS011;20941;42.408;25.634;2023-05-23T10:55:54;5.72;;;3.90;;
34711;SDS011;20941;42.408;25.634;2023-05-23T10:58:20;6.50;;;3.85;;
34711;SDS011;20941;42.408;25.634;2023-05-23T11:00:58;11.50;;;5.55;;
34711;SDS011;20941;42.408;25.634;2023-05-23T11:05:59;7.28;;;4.10;;
34711;SDS011;20941;42.408;25.634;2023-05-23T11:08:25;5.53;;;3.65;;
34711;SDS011;20941;42.408;25.634;2023-05-23T11:11:03;4.78;;;3.40;;
34711;SDS011;20941;42.408;25.634;2023-05-23T11:16:39;5.70;;;3.67;;
34711;SDS011;20941;42.408;25.634;2023-05-23T11:21:46;5.95;;;3.10;;
34711;SDS011;20941;42.408;25.634;2023-05-23T11:24:13;5.78;;;3.40;;
34711;SDS011;20941;42.408;25.634;2023-05-23T11:26:38;6.53;;;4.05;;
34711;SDS011;20941;42.408;25.634;2023-05-23T11:29:07;5.65;;;3.33;;
34711;SDS011;20941;42.408;25.634;2023-05-23T11:31:36;7.13;;;3.22;;
34711;SDS011;20941;42.408;25.634;2023-05-23T11:34:02;8.30;;;3.60;;
34711;SDS011;20941;42.408;25.634;2023-05-23T11:36:27;7.60;;;3.55;;
34711;SDS011;20941;42.408;25.634;2023-05-23T11:38:53;7.82;;;3.92;;
34711;SDS011;20941;42.408;25.634;2023-05-23T11:41:19;11.75;;;8.52;;
34711;SDS011;20941;42.408;25.634;2023-05-23T11:43:52;6.55;;;3.10;;
34711;SDS011;20941;42.408;25.634;2023-05-23T11:46:17;6.78;;;3.15;;
34711;SDS011;20941;42.408;25.634;2023-05-23T11:48:46;6.70;;;3.05;;
34711;SDS011;20941;42.408;25.634;2023-05-23T11:51:11;6.35;;;2.97;;
34711;SDS011;20941;42.408;25.634;2023-05-23T11:53:37;6.50;;;2.90;;
34711;SDS011;20941;42.408;25.634;2023-05-23T11:56:02;7.90;;;3.47;;
34711;SDS011;20941;42.408;25.634;2023-05-23T11:58:29;3.40;;;2.65;;
34711;SDS011;20941;42.408;25.634;2023-05-23T12:00:59;5.28;;;2.97;;
34711;SDS011;20941;42.408;25.634;2023-05-23T12:03:24;8.00;;;3.42;;
34711;SDS011;20941;42.408;25.634;2023-05-23T12:05:50;7.70;;;3.10;;
34711;SDS011;20941;42.408;25.634;2023-05-23T12:08:15;3.63;;;2.97;;
34711;SDS011;20941;42.408;25.634;2023-05-23T12:10:50;9.85;;;3.72;;
34711;SDS011;20941;42.408;25.634;2023-05-23T12:13:16;4.38;;;3.03;;
34711;SDS011;20941;42.408;25.634;2023-05-23T12:15:41;1.60;;;1.50;;
34711;SDS011;20941;42.408;25.634;2023-05-23T12:18:07;16.08;;;6.90;;
34711;SDS011;20941;42.408;25.634;2023-05-23T12:20:33;14.13;;;7.95;;
34711;SDS011;20941;42.408;25.634;2023-05-23T12:23:03;13.35;;;6.53;;
34711;SDS011;20941;42.408;25.634;2023-05-23T12:25:28;15.65;;;5.53;;
34711;SDS011;20941;42.408;25.634;2023-05-23T12:27:55;18.20;;;7.30;;
34711;SDS011;20941;42.408;25.634;2023-05-23T12:30:20;22.23;;;6.50;;
34711;SDS011;20941;42.408;25.634;2023-05-23T12:32:47;34.17;;;7.50;;
34711;SDS011;20941;42.408;25.634;2023-05-23T12:35:13;18.05;;;5.82;;
34711;SDS011;20941;42.408;25.634;2023-05-23T12:37:39;7.68;;;3.58;;
34711;SDS011;20941;42.408;25.634;2023-05-23T12:40:12;4.18;;;2.78;;
34711;SDS011;20941;42.408;25.634;2023-05-23T12:45:12;5.45;;;2.92;;
34711;SDS011;20941;42.408;25.634;2023-05-23T12:47:37;6.60;;;3.08;;
34711;SDS011;20941;42.408;25.634;2023-05-23T12:50:03;5.43;;;2.92;;
34711;SDS011;20941;42.408;25.634;2023-05-23T12:52:28;7.90;;;3.05;;
34711;SDS011;20941;42.408;25.634;2023-05-23T12:54:53;4.03;;;2.85;;
34711;SDS011;20941;42.408;25.634;2023-05-23T12:57:19;4.70;;;2.45;;
34711;SDS011;20941;42.408;25.634;2023-05-23T12:59:44;8.35;;;3.60;;
34711;SDS011;20941;42.408;25.634;2023-05-23T13:02:09;6.10;;;3.25;;
34711;SDS011;20941;42.408;25.634;2023-05-23T13:04:35;9.30;;;4.32;;
34711;SDS011;20941;42.408;25.634;2023-05-23T13:07:00;4.55;;;2.60;;
34711;SDS011;20941;42.408;25.634;2023-05-23T13:09:25;8.10;;;2.80;;
34711;SDS011;20941;42.408;25.634;2023-05-23T13:11:51;2.75;;;2.55;;
34711;SDS011;20941;42.408;25.634;2023-05-23T13:14:16;5.25;;;3.10;;
34711;SDS011;20941;42.408;25.634;2023-05-23T13:16:42;6.30;;;3.17;;
34711;SDS011;20941;42.408;25.634;2023-05-23T13:19:08;3.55;;;2.80;;
34711;SDS011;20941;42.408;25.634;2023-05-23T13:21:35;8.52;;;3.88;;
34711;SDS011;20941;42.408;25.634;2023-05-23T13:24:01;19.50;;;6.38;;
34711;SDS011;20941;42.408;25.634;2023-05-23T13:26:27;10.45;;;5.72;;
34711;SDS011;20941;42.408;25.634;2023-05-23T13:28:52;9.20;;;2.97;;
34711;SDS011;20941;42.408;25.634;2023-05-23T13:31:18;5.97;;;3.50;;
34711;SDS011;20941;42.408;25.634;2023-05-23T13:33:43;18.83;;;6.53;;
34711;SDS011;20941;42.408;25.634;2023-05-23T13:36:08;5.97;;;3.50;;
34711;SDS011;20941;42.408;25.634;2023-05-23T13:38:33;13.05;;;5.50;;
34711;SDS011;20941;42.408;25.634;2023-05-23T13:40:59;13.45;;;4.40;;
34711;SDS011;20941;42.408;25.634;2023-05-23T13:43:25;7.28;;;3.50;;
34711;SDS011;20941;42.408;25.634;2023-05-23T13:45:50;5.10;;;2.50;;
34711;SDS011;20941;42.408;25.634;2023-05-23T13:48:15;8.20;;;4.30;;
34711;SDS011;20941;42.408;25.634;2023-05-23T13:50:41;9.13;;;6.75;;
34711;SDS011;20941;42.408;25.634;2023-05-23T13:53:06;3.78;;;2.83;;
34711;SDS011;20941;42.408;25.634;2023-05-23T13:55:38;9.02;;;4.82;;
34711;SDS011;20941;42.408;25.634;2023-05-23T13:58:03;15.50;;;8.68;;
34711;SDS011;20941;42.408;25.634;2023-05-23T14:00:29;9.38;;;4.20;;
34711;SDS011;20941;42.408;25.634;2023-05-23T14:02:54;11.77;;;5.10;;
34711;SDS011;20941;42.408;25.634;2023-05-23T14:05:20;7.50;;;3.35;;
34711;SDS011;20941;42.408;25.634;2023-05-23T14:07:45;4.60;;;2.50;;
34711;SDS011;20941;42.408;25.634;2023-05-23T14:10:11;4.88;;;3.05;;
34711;SDS011;20941;42.408;25.634;2023-05-23T14:12:38;4.32;;;3.03;;
34711;SDS011;20941;42.408;25.634;2023-05-23T14:15:03;8.40;;;4.70;;
34711;SDS011;20941;42.408;25.634;2023-05-23T14:17:28;3.65;;;2.72;;
34711;SDS011;20941;42.408;25.634;2023-05-23T14:19:54;3.80;;;2.53;;
34711;SDS011;20941;42.408;25.634;2023-05-23T14:22:20;3.92;;;2.72;;
34711;SDS011;20941;42.408;25.634;2023-05-23T14:24:45;4.28;;;1.95;;
34711;SDS011;20941;42.408;25.634;2023-05-23T14:27:10;3.33;;;2.92;;
34711;SDS011;20941;42.408;25.634;2023-05-23T14:29:36;3.08;;;2.28;;
34711;SDS011;20941;42.408;25.634;2023-05-23T14:32:01;11.55;;;4.05;;
34711;SDS011;20941;42.408;25.634;2023-05-23T14:34:28;13.48;;;7.18;;
34711;SDS011;20941;42.408;25.634;2023-05-23T14:36:53;16.50;;;7.05;;
34711;SDS011;20941;42.408;25.634;2023-05-23T14:39:19;4.00;;;3.25;;
34711;SDS011;20941;42.408;25.634;2023-05-23T14:41:44;17.45;;;6.35;;
34711;SDS011;20941;42.408;25.634;2023-05-23T14:44:11;7.80;;;4.25;;
34711;SDS011;20941;42.408;25.634;2023-05-23T14:46:37;8.85;;;2.72;;
34711;SDS011;20941;42.408;25.634;2023-05-23T14:49:02;4.07;;;3.30;;
34711;SDS011;20941;42.408;25.634;2023-05-23T14:51:27;7.22;;;2.83;;
34711;SDS011;20941;42.408;25.634;2023-05-23T14:53:53;6.75;;;3.65;;
34711;SDS011;20941;42.408;25.634;2023-05-23T14:56:18;10.00;;;4.80;;